Latest Coastal Weather Observations for Eucla

IDW60701

Issued at 1:32 pm WST Thursday 2 July 2015 (issued every 10 minutes, with the page automatically refreshed every 10 minutes)

About coastal observations | Map of coastal stations | Coastal observations for WA | Marine services | Other Formats
Station Details ID: 011003 Name: EUCLA Lat: -31.68 Lon: 128.90 Height: 93.1 m
Data from the previous 72 hours. | See also: Recent months at Eucla
Date/Time
WST
Temp

°C
Wind Pressure Rain
since 9am
mm
Weather Cloud Vis
km
Sea
Height
m
Swell
Dir
 
Speed
knots
Gust
knots
hPa Trend Height
m
Period
s
Dir
02/01:30pm 16.5 ESE 10 15 1027.6 - 0.0 - - - - - - -
02/01:00pm 17.1 SE 9 14 1027.8 - 0.0 - - - - - - -
02/12:30pm 17.7 ESE 8 12 1028.0 - 0.0 - - - - - - -
02/12:00pm 18.4 ENE 6 11 1028.1 - 0.0 - - - - - - -
02/11:30am 19.4 NE 8 13 1028.4 - 0.0 - - - - - - -
02/11:00am 19.0 NE 8 12 1029.1 - 0.0 - - - - - - -
02/10:30am 18.1 NE 8 14 1029.6 - 0.0 - - - - - - -
02/10:00am 17.4 NNE 7 10 1030.3 - 0.0 - - - - - - -
02/09:30am 16.3 N 7 10 1030.8 - 0.0 - - - - - - -
02/09:00am 14.4 NNE 7 10 1030.5 - 0.0 Fine Mostly clear 40 - - - -
02/08:30am 12.3 N 8 10 1030.3 - 0.0 - - - - - - -
02/08:00am 9.8 N 8 13 1029.8 - 0.0 - - - - - - -
02/07:30am 7.0 N 8 9 1029.7 - 0.0 - - - - - - -
02/07:00am 5.0 N 7 9 1029.8 - 0.0 - - - - - - -
02/06:30am 4.6 N 8 9 1029.7 - 0.0 - - - - - - -
02/06:00am 4.6 N 7 8 1029.4 - 0.0 - - - - - - -
02/05:30am 4.8 N 8 9 1028.9 - 0.0 - - - - - - -
02/05:00am 4.9 N 8 9 1028.7 - 0.0 - - - - - - -
02/04:30am 5.0 N 7 9 1028.7 - 0.0 - - - - - - -
02/04:00am 5.4 N 7 10 1028.6 - 0.0 - - - - - - -
02/03:30am 5.9 N 7 8 1028.6 - 0.0 - - - - - - -
02/03:00am 5.9 NNE 7 8 1028.7 - 0.0 - - - - - - -
02/02:30am 6.6 NNE 6 7 1028.7 - 0.0 - - - - - - -
02/02:00am 7.2 NNE 6 7 1028.8 - 0.0 - - - - - - -
02/01:30am 7.1 NNE 6 7 1028.7 - 0.0 - - - - - - -
02/01:00am 6.8 NNE 6 7 1028.9 - 0.0 - - - - - - -
02/12:30am 6.9 NNE 6 8 1029.0 - 0.0 - - - - - - -
02/12:00am 7.6 NNE 6 8 1029.0 - 0.0 - - - - - - -
 
Date/Time
WST
Temp

°C
Wind Pressure Rain
since 9am
mm
Weather Cloud Vis
km
Sea
Height
m
Swell
Dir
 
Speed
knots
Gust
knots
hPa Trend Height
m
Period
s
Dir
01/11:30pm 8.1 NNE 7 9 1029.0 - 0.0 - - - - - - -
01/11:00pm 7.8 NNE 6 6 1029.2 - 0.0 - - - - - - -
01/10:30pm 8.5 NNE 6 7 1029.0 - 0.0 - - - - - - -
01/10:00pm 10.2 NE 6 7 1029.1 - 0.0 - - - - - - -
01/09:30pm 10.7 NE 6 7 1029.0 - 0.0 - - - - - - -
01/09:00pm 10.7 NE 6 7 1029.0 - 0.0 - - - - - - -
01/08:30pm 10.9 ENE 6 7 1029.2 - 0.0 - - - - - - -
01/08:00pm 11.3 ENE 6 7 1029.2 - 0.0 - - - - - - -
01/07:30pm 11.6 ENE 5 6 1029.3 - 0.0 - - - - - - -
01/07:00pm 11.7 ENE 5 7 1028.9 - 0.0 - - - - - - -
01/06:30pm 12.5 E 6 7 1028.7 - 0.0 - - - - - - -
01/06:00pm 12.8 E 6 7 1028.4 - 0.0 - - - - - - -
01/05:30pm 13.8 E 5 6 1028.4 - 0.0 - - - - - - -
01/05:00pm 13.4 E 5 6 1027.8 - 0.0 - - - - - - -
01/04:30pm 14.8 ESE 5 6 1027.6 - 0.0 - - - - - - -
01/04:00pm 16.5 SE 5 7 1027.6 - 0.0 - - - - - - -
01/03:30pm 17.6 ESE 5 8 1027.2 - 0.0 - - - - - - -
01/03:00pm 18.7 SE 7 9 1027.6 - 0.0 Fine Mostly clear 40 - - - -
01/02:30pm 19.1 SE 7 10 1027.7 - 0.0 - - - - - - -
01/02:00pm 19.6 SSE 6 10 1027.3 - 0.0 - - - - - - -
01/01:30pm 20.1 E 3 5 1027.2 - 0.0 - - - - - - -
01/01:00pm 20.6 N 5 7 1027.2 - 0.0 - - - - - - -
01/12:30pm 20.1 NNW 6 8 1027.6 - 0.0 - - - - - - -
01/12:00pm 18.9 N 7 9 1028.1 - 0.0 - - - - - - -
01/11:30am 17.1 N 7 10 1028.5 - 0.0 - - - - - - -
01/11:00am 16.1 N 7 9 1028.7 - 0.0 - - - - - - -
01/10:30am 14.8 N 7 9 1029.1 - 0.0 - - - - - - -
01/10:00am 13.6 N 7 9 1029.4 - 0.0 - - - - - - -
01/09:30am 12.1 N 8 11 1029.6 - 0.0 - - - - - - -
01/09:00am 11.6 N 8 11 1029.8 - 0.2 Fine Mostly cloudy 40 - - - -
01/08:30am 10.1 N 8 12 1030.1 - 0.2 - - - - - - -
01/08:00am 8.3 N 8 10 1030.1 - 0.2 - - - - - - -
01/07:30am 7.3 N 8 11 1029.5 - 0.2 - - - - - - -
01/07:00am 6.4 N 8 11 1029.3 - 0.2 - - - - - - -
01/06:30am 5.5 N 8 10 1028.8 - 0.2 - - - - - - -
01/06:00am 5.1 N 8 10 1028.5 - 0.2 - - - - - - -
01/05:30am 5.1 N 8 10 1028.6 - 0.2 - - - - - - -
01/05:00am 5.5 N 8 9 1028.6 - 0.2 - - - - - - -
01/04:30am 5.8 N 7 9 1028.6 - 0.2 - - - - - - -
01/04:00am 5.8 N 7 9 1028.5 - 0.2 - - - - - - -
01/03:30am 5.8 N 8 10 1028.5 - 0.0 - - - - - - -
01/03:00am 6.4 NNE 8 11 1028.3 - 0.0 - - - - - - -
01/02:30am 7.3 NNE 9 14 1028.4 - 0.0 - - - - - - -
01/02:00am 6.7 NNE 8 10 1028.8 - 0.0 - - - - - - -
01/01:30am 6.5 NNE 8 9 1028.9 - 0.0 - - - - - - -
01/01:00am 6.9 NNE 8 10 1028.6 - 0.0 - - - - - - -
01/12:30am 7.3 NNE 7 10 1028.7 - 0.0 - - - - - - -
01/12:00am 7.2 NE 7 10 1028.9 - 0.0 - - - - - - -
 
Date/Time
WST
Temp

°C
Wind Pressure Rain
since 9am
mm
Weather Cloud Vis
km
Sea
Height
m
Swell
Dir
 
Speed
knots
Gust
knots
hPa Trend Height
m
Period
s
Dir
30/11:30pm 6.9 NE 7 9 1028.9 - 0.0 - - - - - - -
30/11:00pm 7.3 NNE 7 9 1029.2 - 0.0 - - - - - - -
30/10:30pm 7.7 NE 7 8 1029.3 - 0.0 - - - - - - -
30/10:00pm 8.0 NE 7 9 1029.4 - 0.0 - - - - - - -
30/09:30pm 8.0 NE 7 9 1029.3 - 0.0 - - - - - - -
30/09:00pm 8.1 NE 7 8 1029.0 - 0.0 - - - - - - -
30/08:30pm 8.4 NE 7 8 1029.0 - 0.0 - - - - - - -
30/08:00pm 8.6 NE 7 8 1029.2 - 0.0 - - - - - - -
30/07:30pm 9.4 NE 7 8 1029.0 - 0.0 - - - - - - -
30/07:00pm 9.8 ENE 6 8 1029.2 - 0.0 - - - - - - -
30/06:30pm 10.5 ENE 6 7 1029.3 - 0.0 - - - - - - -
30/06:00pm 11.0 ENE 5 7 1029.0 - 0.0 - - - - - - -
30/05:30pm 11.8 ENE 6 8 1028.6 - 0.0 - - - - - - -
30/05:00pm 12.3 E 6 8 1028.3 - 0.0 - - - - - - -
30/04:30pm 13.2 E 7 9 1028.3 - 0.0 - - - - - - -
30/04:00pm 14.2 E 8 14 1028.3 - 0.0 - - - - - - -
30/03:30pm 15.0 E 9 12 1028.2 - 0.0 - - - - - - -
30/03:00pm 15.5 ESE 10 14 1028.3 - 0.0 Fine Mostly clear 40 - - - -
30/02:30pm 16.2 ESE 8 14 1028.1 - 0.0 - - - - - - -
30/02:00pm 16.3 ESE 8 12 1028.1 - 0.0 - - - - - - -
30/01:30pm 16.7 SE 8 11 1028.3 - 0.0 - - - - - - -
30/01:00pm 16.7 SE 8 12 1028.6 - 0.0 - - - - - - -
30/12:30pm 17.0 SE 8 10 1028.9 - 0.0 - - - - - - -
30/12:00pm 17.2 SSE 8 10 1029.4 - 0.0 - - - - - - -
30/11:30am 17.6 NNE 6 8 1029.9 - 0.0 - - - - - - -
30/11:00am 17.1 NE 5 8 1030.3 - 0.0 - - - - - - -
30/10:30am 16.3 NNE 6 9 1030.5 - 0.0 - - - - - - -
30/10:00am 15.2 NNE 7 10 1030.7 - 0.0 - - - - - - -
30/09:30am 13.9 NNE 7 9 1031.0 - 0.0 - - - - - - -
30/09:00am 11.7 N 7 10 1030.8 - 0.2 Fine Mostly clear 40 - - - -
30/08:30am 9.9 N 7 10 1030.8 - 0.2 - - - - - - -
30/08:00am 7.4 N 7 9 1030.7 - 0.2 - - - - - - -
30/07:30am 5.5 N 7 8 1030.5 - 0.2 - - - - - - -
30/07:00am 3.8 N 6 7 1030.5 - 0.2 - - - - - - -
30/06:30am 2.7 N 6 7 1030.1 - 0.2 - - - - - - -
30/06:00am 2.6 N 6 7 1030.0 - 0.2 - - - - - - -
30/05:30am 3.4 N 7 8 1029.7 - 0.2 - - - - - - -
30/05:00am 3.0 N 6 8 1029.6 - 0.2 - - - - - - -
30/04:30am 3.3 N 6 9 1029.6 - 0.2 - - - - - - -
30/04:00am 3.2 N 6 8 1028.9 - 0.2 - - - - - - -
30/03:30am 3.3 N 6 7 1029.0 - 0.2 - - - - - - -
30/03:00am 3.8 N 6 6 1028.9 - 0.2 - - - - - - -
30/02:30am 4.4 N 6 6 1028.8 - 0.2 - - - - - - -
30/02:00am 5.1 NNE 6 7 1028.6 - 0.2 - - - - - - -
30/01:30am 4.6 N 6 7 1028.5 - 0.2 - - - - - - -
30/01:00am 4.9 NNE 6 6 1028.7 - 0.0 - - - - - - -
30/12:30am 4.9 N 6 7 1028.8 - 0.0 - - - - - - -
30/12:00am 5.9 N 6 6 1029.3 - 0.0 - - - - - - -
 
Date/Time
WST
Temp

°C
Wind Pressure Rain
since 9am
mm
Weather Cloud Vis
km
Sea
Height
m
Swell
Dir
 
Speed
knots
Gust
knots
hPa Trend Height
m
Period
s
Dir
29/11:30pm 7.1 NE 6 6 1029.5 - 0.0 - - - - - - -
29/11:00pm 7.1 NNE 5 5 1029.9 - 0.0 - - - - - - -
29/10:30pm 8.5 NE 5 5 1030.1 - 0.0 - - - - - - -
29/10:00pm 9.8 ENE 4 5 1030.5 - 0.0 - - - - - - -
29/09:30pm 10.5 E 6 6 1030.1 - 0.0 - - - - - - -
29/09:00pm 10.7 E 6 6 1030.1 - 0.0 - - - - - - -
29/08:30pm 10.7 E 6 7 1030.2 - 0.0 - - - - - - -
29/08:00pm 11.0 E 5 7 1030.0 - 0.0 - - - - - - -
29/07:30pm 11.1 ESE 6 7 1030.0 - 0.0 - - - - - - -
29/07:00pm 11.2 ESE 6 7 1030.1 - 0.0 - - - - - - -
29/06:30pm 11.4 ESE 6 7 1030.1 - 0.0 - - - - - - -
29/06:00pm 11.9 ESE 6 7 1029.9 - 0.0 - - - - - - -
29/05:30pm 11.6 ESE 6 7 1029.5 - 0.0 - - - - - - -
29/05:00pm 12.2 ESE 6 7 1029.2 - 0.0 - - - - - - -
29/04:30pm 13.1 ESE 5 8 1029.3 - 0.0 - - - - - - -
29/04:00pm 14.1 SE 7 10 1029.2 - 0.0 - - - - - - -
29/03:30pm 15.0 SE 7 10 1029.0 - 0.0 - - - - - - -
29/03:00pm 15.8 SE 7 10 1029.0 - 0.0 Fine Mostly clear 40 - - - -
29/02:30pm 16.1 SE 7 11 1028.9 - 0.0 - - - - - - -
29/02:00pm 16.3 SE 8 13 1029.0 - 0.0 - - - - - - -

Other Formats:

Comma delimited format used in spreadsheet applications
http://www.bom.gov.au/fwo/IDW60701/IDW60701.94647.axf

JavaScript Object Notation format (JSON) in row-major order
http://www.bom.gov.au/fwo/IDW60701/IDW60701.94647.json